sensor_id;sensor_type;location;lat;lon;timestamp;pressure;altitude;pressure_sealevel;temperature;humidity
74627;BME280;63132;52.268;5.192;2024-01-30T00:02:09;102386.66;;;16.74;47.75
74627;BME280;63132;52.268;5.192;2024-01-30T00:04:34;102389.50;;;16.64;47.94
74627;BME280;63132;52.268;5.192;2024-01-30T00:06:59;102385.03;;;16.84;47.57
74627;BME280;63132;52.268;5.192;2024-01-30T00:09:25;102379.84;;;16.75;47.48
74627;BME280;63132;52.268;5.192;2024-01-30T00:11:50;102384.66;;;16.68;47.63
74627;BME280;63132;52.268;5.192;2024-01-30T00:14:16;102387.44;;;16.78;47.31
74627;BME280;63132;52.268;5.192;2024-01-30T00:16:41;102384.66;;;16.75;47.60
74627;BME280;63132;52.268;5.192;2024-01-30T00:19:06;102379.09;;;16.71;47.34
74627;BME280;63132;52.268;5.192;2024-01-30T00:21:33;102368.72;;;16.61;48.16
74627;BME280;63132;52.268;5.192;2024-01-30T00:23:59;102381.09;;;16.64;48.37
74627;BME280;63132;52.268;5.192;2024-01-30T00:26:24;102373.09;;;16.66;47.54
74627;BME280;63132;52.268;5.192;2024-01-30T00:28:49;102368.28;;;16.77;47.19
74627;BME280;63132;52.268;5.192;2024-01-30T00:31:15;102367.06;;;16.78;47.63
74627;BME280;63132;52.268;5.192;2024-01-30T00:33:40;102373.84;;;16.80;47.76
74627;BME280;63132;52.268;5.192;2024-01-30T00:36:07;102377.81;;;16.83;47.47
74627;BME280;63132;52.268;5.192;2024-01-30T00:38:33;102377.28;;;17.02;47.07
74627;BME280;63132;52.268;5.192;2024-01-30T00:40:58;102371.78;;;16.92;47.21
74627;BME280;63132;52.268;5.192;2024-01-30T00:43:23;102358.63;;;16.85;47.05
74627;BME280;63132;52.268;5.192;2024-01-30T00:45:49;102366.47;;;17.04;47.44
74627;BME280;63132;52.268;5.192;2024-01-30T00:48:17;102376.44;;;17.09;47.26
74627;BME280;63132;52.268;5.192;2024-01-30T00:50:42;102387.66;;;17.09;47.11
74627;BME280;63132;52.268;5.192;2024-01-30T00:53:08;102370.78;;;17.16;47.01
74627;BME280;63132;52.268;5.192;2024-01-30T00:55:33;102373.91;;;17.29;46.37
74627;BME280;63132;52.268;5.192;2024-01-30T00:57:58;102369.09;;;17.26;47.24
74627;BME280;63132;52.268;5.192;2024-01-30T01:00:24;102357.91;;;17.26;47.25
74627;BME280;63132;52.268;5.192;2024-01-30T01:02:54;102361.88;;;17.32;47.16
74627;BME280;63132;52.268;5.192;2024-01-30T01:05:19;102365.81;;;17.34;47.18
74627;BME280;63132;52.268;5.192;2024-01-30T01:07:45;102361.81;;;17.35;46.93
74627;BME280;63132;52.268;5.192;2024-01-30T01:10:12;102360.97;;;17.42;46.31
74627;BME280;63132;52.268;5.192;2024-01-30T01:12:39;102356.19;;;17.39;47.02
74627;BME280;63132;52.268;5.192;2024-01-30T01:15:05;102351.75;;;17.41;46.77
74627;BME280;63132;52.268;5.192;2024-01-30T01:17:30;102347.22;;;17.58;46.75
74627;BME280;63132;52.268;5.192;2024-01-30T01:19:57;102333.72;;;17.46;47.04
74627;BME280;63132;52.268;5.192;2024-01-30T01:22:22;102345.59;;;17.57;46.68
74627;BME280;63132;52.268;5.192;2024-01-30T01:24:48;102347.44;;;17.37;46.14
74627;BME280;63132;52.268;5.192;2024-01-30T01:27:13;102352.13;;;17.47;46.53
74627;BME280;63132;52.268;5.192;2024-01-30T01:29:38;102351.81;;;17.38;46.01
74627;BME280;63132;52.268;5.192;2024-01-30T01:32:04;102354.16;;;17.43;46.69
74627;BME280;63132;52.268;5.192;2024-01-30T01:34:29;102349.00;;;17.38;46.99
74627;BME280;63132;52.268;5.192;2024-01-30T01:36:54;102350.72;;;17.25;45.79
74627;BME280;63132;52.268;5.192;2024-01-30T01:39:20;102359.13;;;17.25;46.08
74627;BME280;63132;52.268;5.192;2024-01-30T01:41:46;102361.91;;;17.28;46.81
74627;BME280;63132;52.268;5.192;2024-01-30T01:44:11;102364.97;;;17.41;46.22
74627;BME280;63132;52.268;5.192;2024-01-30T01:46:36;102358.50;;;17.48;46.49
74627;BME280;63132;52.268;5.192;2024-01-30T01:49:03;102352.97;;;17.44;46.28
74627;BME280;63132;52.268;5.192;2024-01-30T01:51:31;102344.34;;;17.21;47.18
74627;BME280;63132;52.268;5.192;2024-01-30T01:53:58;102348.69;;;17.29;46.84
74627;BME280;63132;52.268;5.192;2024-01-30T01:56:26;102345.78;;;17.39;46.52
74627;BME280;63132;52.268;5.192;2024-01-30T01:58:54;102353.72;;;17.48;45.97
74627;BME280;63132;52.268;5.192;2024-01-30T02:01:20;102348.22;;;17.37;46.25
74627;BME280;63132;52.268;5.192;2024-01-30T02:03:46;102342.25;;;17.32;45.76
74627;BME280;63132;52.268;5.192;2024-01-30T02:06:15;102330.00;;;17.15;46.73
74627;BME280;63132;52.268;5.192;2024-01-30T02:08:41;102347.44;;;17.33;45.71
74627;BME280;63132;52.268;5.192;2024-01-30T02:11:06;102347.53;;;17.23;45.51
74627;BME280;63132;52.268;5.192;2024-01-30T02:13:32;102348.34;;;17.23;46.15
74627;BME280;63132;52.268;5.192;2024-01-30T02:15:57;102339.91;;;17.27;46.52
74627;BME280;63132;52.268;5.192;2024-01-30T02:18:22;102331.63;;;17.12;46.69
74627;BME280;63132;52.268;5.192;2024-01-30T02:20:48;102315.97;;;17.19;46.38
74627;BME280;63132;52.268;5.192;2024-01-30T02:23:15;102317.06;;;17.32;46.03
74627;BME280;63132;52.268;5.192;2024-01-30T02:25:42;102345.00;;;17.35;45.87
74627;BME280;63132;52.268;5.192;2024-01-30T02:28:13;102336.22;;;17.37;46.11
74627;BME280;63132;52.268;5.192;2024-01-30T02:30:47;102326.25;;;17.36;46.69
74627;BME280;63132;52.268;5.192;2024-01-30T02:33:13;102325.31;;;17.46;46.22
74627;BME280;63132;52.268;5.192;2024-01-30T02:35:38;102350.47;;;17.53;45.69
74627;BME280;63132;52.268;5.192;2024-01-30T02:38:04;102341.47;;;17.31;46.35
74627;BME280;63132;52.268;5.192;2024-01-30T02:40:29;102338.16;;;17.43;46.06
74627;BME280;63132;52.268;5.192;2024-01-30T02:42:55;102314.69;;;17.30;46.00
74627;BME280;63132;52.268;5.192;2024-01-30T02:45:20;102304.56;;;17.40;46.33
74627;BME280;63132;52.268;5.192;2024-01-30T02:47:46;102281.56;;;17.22;46.62
74627;BME280;63132;52.268;5.192;2024-01-30T02:50:11;102302.50;;;17.48;45.67
74627;BME280;63132;52.268;5.192;2024-01-30T02:52:36;102326.25;;;17.36;46.39
74627;BME280;63132;52.268;5.192;2024-01-30T02:55:02;102303.84;;;17.36;45.92
74627;BME280;63132;52.268;5.192;2024-01-30T02:57:28;102304.94;;;17.46;45.85
74627;BME280;63132;52.268;5.192;2024-01-30T02:59:54;102305.94;;;17.25;46.46
74627;BME280;63132;52.268;5.192;2024-01-30T03:02:19;102300.22;;;17.35;45.46
74627;BME280;63132;52.268;5.192;2024-01-30T03:04:45;102298.88;;;17.09;45.70
74627;BME280;63132;52.268;5.192;2024-01-30T03:07:10;102307.44;;;17.36;45.80
74627;BME280;63132;52.268;5.192;2024-01-30T03:09:36;102300.19;;;17.39;45.92
74627;BME280;63132;52.268;5.192;2024-01-30T03:12:02;102299.47;;;17.28;45.99
74627;BME280;63132;52.268;5.192;2024-01-30T03:14:30;102302.78;;;17.19;46.02
74627;BME280;63132;52.268;5.192;2024-01-30T03:16:56;102308.44;;;17.12;45.43
74627;BME280;63132;52.268;5.192;2024-01-30T03:19:21;102291.69;;;17.08;46.13
74627;BME280;63132;52.268;5.192;2024-01-30T03:21:46;102286.69;;;17.27;46.03
74627;BME280;63132;52.268;5.192;2024-01-30T03:24:11;102288.34;;;17.24;45.45
74627;BME280;63132;52.268;5.192;2024-01-30T03:26:37;102281.81;;;17.38;45.78
74627;BME280;63132;52.268;5.192;2024-01-30T03:29:02;102281.81;;;17.38;46.51
74627;BME280;63132;52.268;5.192;2024-01-30T03:31:27;102274.22;;;17.35;45.71
74627;BME280;63132;52.268;5.192;2024-01-30T03:33:53;102271.75;;;17.40;45.69
74627;BME280;63132;52.268;5.192;2024-01-30T03:36:18;102264.09;;;17.48;45.04
74627;BME280;63132;52.268;5.192;2024-01-30T03:38:43;102267.75;;;17.41;46.10
74627;BME280;63132;52.268;5.192;2024-01-30T03:41:09;102250.06;;;17.48;45.86
74627;BME280;63132;52.268;5.192;2024-01-30T03:43:35;102256.19;;;17.39;46.24
74627;BME280;63132;52.268;5.192;2024-01-30T03:46:01;102261.81;;;17.36;45.54
74627;BME280;63132;52.268;5.192;2024-01-30T03:48:27;102259.31;;;17.45;45.99
74627;BME280;63132;52.268;5.192;2024-01-30T03:50:52;102259.28;;;17.49;45.85
74627;BME280;63132;52.268;5.192;2024-01-30T03:53:17;102271.06;;;17.70;45.51
74627;BME280;63132;52.268;5.192;2024-01-30T03:55:43;102270.75;;;17.58;45.63
74627;BME280;63132;52.268;5.192;2024-01-30T03:58:08;102266.88;;;17.48;45.94
74627;BME280;63132;52.268;5.192;2024-01-30T04:00:33;102274.50;;;17.48;46.11
74627;BME280;63132;52.268;5.192;2024-01-30T04:02:59;102277.13;;;17.62;45.68
74627;BME280;63132;52.268;5.192;2024-01-30T04:05:24;102269.81;;;17.75;45.23
74627;BME280;63132;52.268;5.192;2024-01-30T04:07:49;102272.91;;;17.84;44.54
74627;BME280;63132;52.268;5.192;2024-01-30T04:10:15;102274.75;;;17.94;44.58
74627;BME280;63132;52.268;5.192;2024-01-30T04:12:40;102269.41;;;17.77;44.65
74627;BME280;63132;52.268;5.192;2024-01-30T04:15:05;102273.25;;;17.90;44.94
74627;BME280;63132;52.268;5.192;2024-01-30T04:17:31;102258.56;;;17.79;45.11
74627;BME280;63132;52.268;5.192;2024-01-30T04:19:57;102265.97;;;17.96;44.77
74627;BME280;63132;52.268;5.192;2024-01-30T04:22:22;102271.56;;;17.96;44.16
74627;BME280;63132;52.268;5.192;2024-01-30T04:24:48;102261.25;;;17.89;44.71
74627;BME280;63132;52.268;5.192;2024-01-30T04:27:13;102256.97;;;18.08;44.12
74627;BME280;63132;52.268;5.192;2024-01-30T04:29:38;102255.00;;;17.75;44.40
74627;BME280;63132;52.268;5.192;2024-01-30T04:32:04;102252.13;;;18.12;43.97
74627;BME280;63132;52.268;5.192;2024-01-30T04:34:29;102255.16;;;17.94;44.68
74627;BME280;63132;52.268;5.192;2024-01-30T04:36:55;102251.94;;;17.96;44.10
74627;BME280;63132;52.268;5.192;2024-01-30T04:39:20;102256.16;;;18.11;44.27
74627;BME280;63132;52.268;5.192;2024-01-30T04:41:45;102249.09;;;17.99;44.21
74627;BME280;63132;52.268;5.192;2024-01-30T04:44:10;102237.97;;;17.92;44.51
74627;BME280;63132;52.268;5.192;2024-01-30T04:46:36;102252.59;;;18.07;44.26
74627;BME280;63132;52.268;5.192;2024-01-30T04:49:01;102234.94;;;18.10;43.99
74627;BME280;63132;52.268;5.192;2024-01-30T04:51:27;102241.50;;;18.27;42.78
74627;BME280;63132;52.268;5.192;2024-01-30T04:53:52;102241.81;;;17.71;43.94
74627;BME280;63132;52.268;5.192;2024-01-30T04:56:17;102243.91;;;17.98;44.77
74627;BME280;63132;52.268;5.192;2024-01-30T04:58:43;102243.06;;;18.01;43.38
74627;BME280;63132;52.268;5.192;2024-01-30T05:01:08;102241.00;;;18.05;44.09
74627;BME280;63132;52.268;5.192;2024-01-30T05:03:34;102239.94;;;18.22;43.17
74627;BME280;63132;52.268;5.192;2024-01-30T05:05:59;102239.81;;;18.33;43.68
74627;BME280;63132;52.268;5.192;2024-01-30T05:08:25;102246.88;;;18.14;43.72
74627;BME280;63132;52.268;5.192;2024-01-30T05:10:50;102241.13;;;18.25;43.92
74627;BME280;63132;52.268;5.192;2024-01-30T05:13:15;102237.41;;;18.32;43.96
74627;BME280;63132;52.268;5.192;2024-01-30T05:15:41;102235.19;;;18.46;43.32
74627;BME280;63132;52.268;5.192;2024-01-30T05:18:06;102241.19;;;18.48;43.36
74627;BME280;63132;52.268;5.192;2024-01-30T05:20:31;102235.09;;;18.26;43.84
74627;BME280;63132;52.268;5.192;2024-01-30T05:22:57;102230.59;;;18.06;44.30
74627;BME280;63132;52.268;5.192;2024-01-30T05:25:22;102236.47;;;18.42;43.23
74627;BME280;63132;52.268;5.192;2024-01-30T05:27:48;102232.00;;;18.44;42.88
74627;BME280;63132;52.268;5.192;2024-01-30T05:30:14;102241.53;;;18.50;43.03
74627;BME280;63132;52.268;5.192;2024-01-30T05:32:39;102238.09;;;18.39;43.46
74627;BME280;63132;52.268;5.192;2024-01-30T05:35:05;102239.38;;;18.35;44.00
74627;BME280;63132;52.268;5.192;2024-01-30T05:37:30;102233.84;;;18.54;43.55
74627;BME280;63132;52.268;5.192;2024-01-30T05:39:55;102232.47;;;18.70;43.01
74627;BME280;63132;52.268;5.192;2024-01-30T05:42:21;102227.66;;;18.40;42.95
74627;BME280;63132;52.268;5.192;2024-01-30T05:44:46;102236.28;;;18.52;43.60
74627;BME280;63132;52.268;5.192;2024-01-30T05:47:11;102239.00;;;18.60;43.61
74627;BME280;63132;52.268;5.192;2024-01-30T05:49:37;102236.06;;;18.70;43.28
74627;BME280;63132;52.268;5.192;2024-01-30T05:52:03;102239.16;;;18.76;42.81
74627;BME280;63132;52.268;5.192;2024-01-30T05:54:29;102244.13;;;18.65;43.20
74627;BME280;63132;52.268;5.192;2024-01-30T05:56:54;102243.25;;;18.71;43.25
74627;BME280;63132;52.268;5.192;2024-01-30T05:59:19;102244.03;;;18.72;43.16
74627;BME280;63132;52.268;5.192;2024-01-30T06:01:46;102247.59;;;18.49;43.13
74627;BME280;63132;52.268;5.192;2024-01-30T06:04:11;102244.56;;;18.63;43.12
74627;BME280;63132;52.268;5.192;2024-01-30T06:06:37;102247.88;;;18.81;42.92
74627;BME280;63132;52.268;5.192;2024-01-30T06:09:02;102245.38;;;18.60;43.10
74627;BME280;63132;52.268;5.192;2024-01-30T06:11:27;102235.31;;;18.66;43.23
74627;BME280;63132;52.268;5.192;2024-01-30T06:13:53;102246.78;;;18.48;43.67
74627;BME280;63132;52.268;5.192;2024-01-30T06:16:18;102243.09;;;18.28;44.32
74627;BME280;63132;52.268;5.192;2024-01-30T06:18:46;102234.88;;;18.41;43.62
74627;BME280;63132;52.268;5.192;2024-01-30T06:21:11;102235.63;;;18.45;43.86
74627;BME280;63132;52.268;5.192;2024-01-30T06:23:36;102237.72;;;18.37;43.70
74627;BME280;63132;52.268;5.192;2024-01-30T06:26:04;102241.00;;;18.59;43.20
74627;BME280;63132;52.268;5.192;2024-01-30T06:28:29;102234.50;;;18.12;44.73
74627;BME280;63132;52.268;5.192;2024-01-30T06:30:55;102234.44;;;18.69;43.93
74627;BME280;63132;52.268;5.192;2024-01-30T06:33:21;102228.91;;;18.66;43.55
74627;BME280;63132;52.268;5.192;2024-01-30T06:35:46;102232.09;;;18.64;43.70
74627;BME280;63132;52.268;5.192;2024-01-30T06:38:11;102243.75;;;18.63;43.79
74627;BME280;63132;52.268;5.192;2024-01-30T06:40:37;102241.16;;;18.99;42.90
74627;BME280;63132;52.268;5.192;2024-01-30T06:43:03;102256.41;;;18.98;43.33
74627;BME280;63132;52.268;5.192;2024-01-30T06:45:29;102256.25;;;18.58;43.93
74627;BME280;63132;52.268;5.192;2024-01-30T06:47:54;102250.63;;;18.85;43.46
74627;BME280;63132;52.268;5.192;2024-01-30T06:50:19;102256.00;;;18.49;44.05
74627;BME280;63132;52.268;5.192;2024-01-30T06:52:45;102252.38;;;18.99;42.57
74627;BME280;63132;52.268;5.192;2024-01-30T06:55:10;102253.72;;;19.14;43.01
74627;BME280;63132;52.268;5.192;2024-01-30T06:57:36;102259.78;;;18.62;44.04
74627;BME280;63132;52.268;5.192;2024-01-30T07:00:02;102253.69;;;18.71;43.84
74627;BME280;63132;52.268;5.192;2024-01-30T07:02:27;102259.97;;;18.78;43.63
74627;BME280;63132;52.268;5.192;2024-01-30T07:04:53;102256.66;;;18.84;43.50
74627;BME280;63132;52.268;5.192;2024-01-30T07:07:18;102265.63;;;19.22;43.08
74627;BME280;63132;52.268;5.192;2024-01-30T07:09:43;102256.50;;;18.94;43.53
74627;BME280;63132;52.268;5.192;2024-01-30T07:12:09;102255.06;;;19.06;43.33
74627;BME280;63132;52.268;5.192;2024-01-30T07:14:34;102256.84;;;18.96;43.82
74627;BME280;63132;52.268;5.192;2024-01-30T07:16:59;102255.81;;;18.87;44.12
74627;BME280;63132;52.268;5.192;2024-01-30T07:19:24;102257.75;;;19.13;43.42
74627;BME280;63132;52.268;5.192;2024-01-30T07:21:50;102261.41;;;19.33;43.03
74627;BME280;63132;52.268;5.192;2024-01-30T07:24:15;102255.31;;;18.92;44.18
74627;BME280;63132;52.268;5.192;2024-01-30T07:26:40;102263.81;;;19.12;43.94
74627;BME280;63132;52.268;5.192;2024-01-30T07:29:06;102264.06;;;18.97;44.09
74627;BME280;63132;52.268;5.192;2024-01-30T07:31:31;102272.72;;;18.83;44.56
74627;BME280;63132;52.268;5.192;2024-01-30T07:33:56;102262.72;;;18.28;45.69
74627;BME280;63132;52.268;5.192;2024-01-30T07:36:22;102260.13;;;18.91;44.09
74627;BME280;63132;52.268;5.192;2024-01-30T07:38:47;102270.03;;;18.99;45.03
74627;BME280;63132;52.268;5.192;2024-01-30T07:41:12;102272.31;;;19.08;44.60
74627;BME280;63132;52.268;5.192;2024-01-30T07:43:38;102274.66;;;18.05;46.80
74627;BME280;63132;52.268;5.192;2024-01-30T07:46:04;102279.31;;;18.96;44.91
74627;BME280;63132;52.268;5.192;2024-01-30T07:48:33;102289.03;;;19.15;44.53
74627;BME280;63132;52.268;5.192;2024-01-30T07:50:59;102286.69;;;19.10;44.85
74627;BME280;63132;52.268;5.192;2024-01-30T07:53:24;102287.25;;;19.25;44.27
74627;BME280;63132;52.268;5.192;2024-01-30T07:55:49;102290.84;;;19.25;44.35
74627;BME280;63132;52.268;5.192;2024-01-30T07:58:15;102292.81;;;19.48;43.91
74627;BME280;63132;52.268;5.192;2024-01-30T08:00:40;102295.47;;;18.89;45.00
74627;BME280;63132;52.268;5.192;2024-01-30T08:03:06;102294.25;;;19.36;44.01
74627;BME280;63132;52.268;5.192;2024-01-30T08:05:31;102290.00;;;19.05;44.92
74627;BME280;63132;52.268;5.192;2024-01-30T08:07:56;102288.94;;;19.19;44.86
74627;BME280;63132;52.268;5.192;2024-01-30T08:10:22;102303.13;;;19.12;44.58
74627;BME280;63132;52.268;5.192;2024-01-30T08:12:47;102300.22;;;19.62;43.83
74627;BME280;63132;52.268;5.192;2024-01-30T08:15:12;102292.63;;;19.59;44.05
74627;BME280;63132;52.268;5.192;2024-01-30T08:17:38;102294.69;;;19.35;44.45
74627;BME280;63132;52.268;5.192;2024-01-30T08:20:04;102296.69;;;19.34;44.31
74627;BME280;63132;52.268;5.192;2024-01-30T08:22:29;102293.41;;;19.40;44.61
74627;BME280;63132;52.268;5.192;2024-01-30T08:24:55;102297.28;;;18.75;46.08
74627;BME280;63132;52.268;5.192;2024-01-30T08:27:20;102298.53;;;18.98;45.58
74627;BME280;63132;52.268;5.192;2024-01-30T08:29:45;102307.19;;;18.84;46.78
74627;BME280;63132;52.268;5.192;2024-01-30T08:32:11;102308.25;;;19.83;43.63
74627;BME280;63132;52.268;5.192;2024-01-30T08:34:36;102304.31;;;19.57;45.05
74627;BME280;63132;52.268;5.192;2024-01-30T08:37:02;102304.84;;;19.72;44.48
74627;BME280;63132;52.268;5.192;2024-01-30T08:39:28;102306.56;;;19.86;44.56
74627;BME280;63132;52.268;5.192;2024-01-30T08:41:53;102310.31;;;19.79;44.51
74627;BME280;63132;52.268;5.192;2024-01-30T08:44:18;102307.84;;;20.21;43.89
74627;BME280;63132;52.268;5.192;2024-01-30T08:46:44;102313.63;;;19.94;43.87
74627;BME280;63132;52.268;5.192;2024-01-30T08:49:16;102303.91;;;19.35;45.90
74627;BME280;63132;52.268;5.192;2024-01-30T08:51:41;102304.31;;;19.57;45.75
74627;BME280;63132;52.268;5.192;2024-01-30T08:54:07;102309.19;;;19.97;44.33
74627;BME280;63132;52.268;5.192;2024-01-30T08:56:32;102298.94;;;20.06;44.27
74627;BME280;63132;52.268;5.192;2024-01-30T08:58:57;102311.72;;;19.48;45.56
74627;BME280;63132;52.268;5.192;2024-01-30T09:01:23;102302.44;;;19.27;45.94
74627;BME280;63132;52.268;5.192;2024-01-30T09:03:48;102303.91;;;19.99;44.16
74627;BME280;63132;52.268;5.192;2024-01-30T09:06:13;102305.28;;;19.90;43.96
74627;BME280;63132;52.268;5.192;2024-01-30T09:08:39;102309.84;;;18.67;47.71
74627;BME280;63132;52.268;5.192;2024-01-30T09:11:14;102306.41;;;19.30;45.41
74627;BME280;63132;52.268;5.192;2024-01-30T09:13:40;102311.25;;;19.29;45.54
74627;BME280;63132;52.268;5.192;2024-01-30T09:16:06;102325.66;;;19.31;45.76
74627;BME280;63132;52.268;5.192;2024-01-30T09:18:31;102313.31;;;19.25;46.04
74627;BME280;63132;52.268;5.192;2024-01-30T09:20:57;102316.34;;;19.58;45.53
74627;BME280;63132;52.268;5.192;2024-01-30T09:23:22;102324.56;;;20.48;43.02
74627;BME280;63132;52.268;5.192;2024-01-30T09:25:48;102327.47;;;19.18;45.70
74627;BME280;63132;52.268;5.192;2024-01-30T09:28:13;102319.53;;;19.13;46.36
74627;BME280;63132;52.268;5.192;2024-01-30T09:30:38;102328.81;;;18.87;47.12
74627;BME280;63132;52.268;5.192;2024-01-30T09:33:05;102333.44;;;19.20;46.52
74627;BME280;63132;52.268;5.192;2024-01-30T09:35:30;102336.94;;;19.04;47.14
74627;BME280;63132;52.268;5.192;2024-01-30T09:37:55;102330.34;;;19.81;44.96
74627;BME280;63132;52.268;5.192;2024-01-30T09:40:22;102336.41;;;19.60;45.36
74627;BME280;63132;52.268;5.192;2024-01-30T09:42:47;102327.34;;;19.25;46.09
74627;BME280;63132;52.268;5.192;2024-01-30T09:45:15;102333.88;;;19.19;46.30
74627;BME280;63132;52.268;5.192;2024-01-30T09:47:43;102332.72;;;19.63;45.47
74627;BME280;63132;52.268;5.192;2024-01-30T09:50:10;102334.44;;;19.10;46.63
74627;BME280;63132;52.268;5.192;2024-01-30T09:52:36;102332.47;;;19.54;45.44
74627;BME280;63132;52.268;5.192;2024-01-30T09:55:02;102330.44;;;18.84;46.80
74627;BME280;63132;52.268;5.192;2024-01-30T09:57:28;102343.63;;;20.21;44.13
74627;BME280;63132;52.268;5.192;2024-01-30T09:59:53;102338.50;;;20.15;43.85
74627;BME280;63132;52.268;5.192;2024-01-30T10:02:19;102348.56;;;19.30;45.99
74627;BME280;63132;52.268;5.192;2024-01-30T10:04:46;102342.53;;;19.51;45.73
74627;BME280;63132;52.268;5.192;2024-01-30T10:07:12;102341.94;;;19.63;45.19
74627;BME280;63132;52.268;5.192;2024-01-30T10:09:39;102349.88;;;19.22;46.34
74627;BME280;63132;52.268;5.192;2024-01-30T10:12:05;102351.41;;;19.73;45.11
74627;BME280;63132;52.268;5.192;2024-01-30T10:14:31;102353.06;;;19.71;44.94
74627;BME280;63132;52.268;5.192;2024-01-30T10:16:57;102351.03;;;19.71;45.08
74627;BME280;63132;52.268;5.192;2024-01-30T10:19:23;102360.78;;;19.86;44.61
74627;BME280;63132;52.268;5.192;2024-01-30T10:21:48;102350.69;;;19.69;45.22
74627;BME280;63132;52.268;5.192;2024-01-30T10:24:13;102347.38;;;18.46;46.90
74627;BME280;63132;52.268;5.192;2024-01-30T10:26:39;102346.69;;;19.20;44.70
74627;BME280;63132;52.268;5.192;2024-01-30T10:29:04;102358.59;;;19.51;44.02
74627;BME280;63132;52.268;5.192;2024-01-30T10:31:30;102369.63;;;18.91;45.05
74627;BME280;63132;52.268;5.192;2024-01-30T10:33:55;102353.28;;;19.60;43.55
74627;BME280;63132;52.268;5.192;2024-01-30T10:36:28;102364.97;;;19.55;43.84
74627;BME280;63132;52.268;5.192;2024-01-30T10:38:55;102363.75;;;19.32;43.51
74627;BME280;63132;52.268;5.192;2024-01-30T10:41:26;102365.75;;;19.79;43.38
74627;BME280;63132;52.268;5.192;2024-01-30T10:44:08;102370.41;;;19.42;43.59
74627;BME280;63132;52.268;5.192;2024-01-30T10:46:35;102372.91;;;19.36;43.77
74627;BME280;63132;52.268;5.192;2024-01-30T10:49:00;102359.03;;;18.75;44.48
74627;BME280;63132;52.268;5.192;2024-01-30T10:51:27;102367.81;;;19.51;43.23
74627;BME280;63132;52.268;5.192;2024-01-30T10:53:52;102376.03;;;18.92;44.80
74627;BME280;63132;52.268;5.192;2024-01-30T10:56:21;102380.00;;;18.94;44.53
74627;BME280;63132;52.268;5.192;2024-01-30T10:58:48;102387.63;;;19.44;43.46
74627;BME280;63132;52.268;5.192;2024-01-30T11:01:14;102392.72;;;19.76;42.87
74627;BME280;63132;52.268;5.192;2024-01-30T11:03:41;102406.09;;;19.45;43.17
74627;BME280;63132;52.268;5.192;2024-01-30T11:06:10;102393.28;;;19.17;43.86
74627;BME280;63132;52.268;5.192;2024-01-30T11:08:37;102412.00;;;18.73;44.31
74627;BME280;63132;52.268;5.192;2024-01-30T11:11:08;102395.50;;;19.29;43.06
74627;BME280;63132;52.268;5.192;2024-01-30T11:13:34;102390.94;;;17.90;45.45
74627;BME280;63132;52.268;5.192;2024-01-30T11:16:00;102402.25;;;18.51;44.23
74627;BME280;63132;52.268;5.192;2024-01-30T11:18:29;102403.50;;;19.07;42.46
74627;BME280;63132;52.268;5.192;2024-01-30T11:21:04;102404.00;;;18.99;42.56
74627;BME280;63132;52.268;5.192;2024-01-30T11:23:30;102412.59;;;17.89;44.47
74627;BME280;63132;52.268;5.192;2024-01-30T11:25:56;102403.41;;;17.85;44.97
74627;BME280;63132;52.268;5.192;2024-01-30T11:28:22;102407.28;;;16.98;46.75
74627;BME280;63132;52.268;5.192;2024-01-30T11:30:48;102407.09;;;18.47;43.34
74627;BME280;63132;52.268;5.192;2024-01-30T11:33:27;102409.53;;;18.45;43.55
74627;BME280;63132;52.268;5.192;2024-01-30T11:35:53;102404.84;;;18.96;42.46
74627;BME280;63132;52.268;5.192;2024-01-30T11:38:18;102399.34;;;18.27;44.29
74627;BME280;63132;52.268;5.192;2024-01-30T11:40:43;102409.00;;;19.38;42.20
74627;BME280;63132;52.268;5.192;2024-01-30T11:43:09;102412.78;;;19.51;41.76
74627;BME280;63132;52.268;5.192;2024-01-30T11:45:35;102406.81;;;18.99;42.82
74627;BME280;63132;52.268;5.192;2024-01-30T11:48:02;102418.09;;;18.65;43.40
74627;BME280;63132;52.268;5.192;2024-01-30T11:50:31;102421.00;;;18.88;43.05
74627;BME280;63132;52.268;5.192;2024-01-30T11:52:56;102420.03;;;18.71;43.71
74627;BME280;63132;52.268;5.192;2024-01-30T11:55:23;102417.16;;;18.44;44.26
74627;BME280;63132;52.268;5.192;2024-01-30T11:57:48;102428.94;;;18.66;43.66
74627;BME280;63132;52.268;5.192;2024-01-30T12:00:18;102422.56;;;17.42;46.23
74627;BME280;63132;52.268;5.192;2024-01-30T12:02:44;102435.72;;;16.89;47.18
74627;BME280;63132;52.268;5.192;2024-01-30T12:05:13;102423.81;;;16.78;47.15
74627;BME280;63132;52.268;5.192;2024-01-30T12:07:39;102425.09;;;17.26;45.74
74627;BME280;63132;52.268;5.192;2024-01-30T12:10:04;102423.59;;;17.14;46.20
74627;BME280;63132;52.268;5.192;2024-01-30T12:12:30;102429.63;;;17.05;46.19
74627;BME280;63132;52.268;5.192;2024-01-30T12:14:56;102438.47;;;15.95;49.05
74627;BME280;63132;52.268;5.192;2024-01-30T12:17:32;102439.25;;;17.08;46.76
74627;BME280;63132;52.268;5.192;2024-01-30T12:22:39;102435.66;;;17.59;45.00
74627;BME280;63132;52.268;5.192;2024-01-30T12:25:08;102442.88;;;17.01;46.62
74627;BME280;63132;52.268;5.192;2024-01-30T12:27:33;102427.41;;;16.79;47.19
74627;BME280;63132;52.268;5.192;2024-01-30T12:29:59;102443.41;;;16.75;47.66
74627;BME280;63132;52.268;5.192;2024-01-30T12:32:24;102433.03;;;17.34;46.43
74627;BME280;63132;52.268;5.192;2024-01-30T12:34:50;102433.78;;;17.42;45.69
74627;BME280;63132;52.268;5.192;2024-01-30T12:37:15;102446.22;;;16.75;46.97
74627;BME280;63132;52.268;5.192;2024-01-30T12:39:48;102440.09;;;17.53;45.71
74627;BME280;63132;52.268;5.192;2024-01-30T12:42:13;102444.22;;;16.65;47.92
74627;BME280;63132;52.268;5.192;2024-01-30T12:44:38;102445.13;;;17.21;46.09
74627;BME280;63132;52.268;5.192;2024-01-30T12:47:04;102443.44;;;17.37;46.38